sensor_id;sensor_type;location;lat;lon;timestamp;P1;durP1;ratioP1;P2;durP2;ratioP2
7653;SDS011;3869;48.406;10.774;2022-09-01T00:00:06;8.00;;;4.60;;
7653;SDS011;3869;48.406;10.774;2022-09-01T00:02:38;5.30;;;2.83;;
7653;SDS011;3869;48.406;10.774;2022-09-01T00:05:08;5.17;;;3.33;;
7653;SDS011;3869;48.406;10.774;2022-09-01T00:07:39;8.10;;;4.40;;
7653;SDS011;3869;48.406;10.774;2022-09-01T00:10:07;7.27;;;4.00;;
7653;SDS011;3869;48.406;10.774;2022-09-01T00:12:36;6.87;;;3.73;;
7653;SDS011;3869;48.406;10.774;2022-09-01T00:15:04;4.53;;;3.33;;
7653;SDS011;3869;48.406;10.774;2022-09-01T00:17:34;5.80;;;3.70;;
7653;SDS011;3869;48.406;10.774;2022-09-01T00:20:03;4.90;;;3.60;;
7653;SDS011;3869;48.406;10.774;2022-09-01T00:22:31;5.43;;;3.57;;
7653;SDS011;3869;48.406;10.774;2022-09-01T00:25:01;7.37;;;4.07;;
7653;SDS011;3869;48.406;10.774;2022-09-01T00:27:30;7.40;;;3.90;;
7653;SDS011;3869;48.406;10.774;2022-09-01T00:29:58;6.10;;;3.97;;
7653;SDS011;3869;48.406;10.774;2022-09-01T00:32:26;7.03;;;3.30;;
7653;SDS011;3869;48.406;10.774;2022-09-01T00:34:55;8.00;;;4.20;;
7653;SDS011;3869;48.406;10.774;2022-09-01T00:37:23;6.00;;;3.87;;
7653;SDS011;3869;48.406;10.774;2022-09-01T00:39:51;6.03;;;3.90;;
7653;SDS011;3869;48.406;10.774;2022-09-01T00:42:20;5.30;;;3.53;;
7653;SDS011;3869;48.406;10.774;2022-09-01T00:44:48;8.27;;;4.90;;
7653;SDS011;3869;48.406;10.774;2022-09-01T00:47:16;7.97;;;4.70;;
7653;SDS011;3869;48.406;10.774;2022-09-01T00:49:47;7.07;;;3.90;;
7653;SDS011;3869;48.406;10.774;2022-09-01T00:52:18;8.20;;;4.17;;
7653;SDS011;3869;48.406;10.774;2022-09-01T00:54:49;8.70;;;4.00;;
7653;SDS011;3869;48.406;10.774;2022-09-01T00:57:24;4.73;;;3.37;;
7653;SDS011;3869;48.406;10.774;2022-09-01T00:59:54;5.37;;;3.50;;
7653;SDS011;3869;48.406;10.774;2022-09-01T01:02:24;5.90;;;3.30;;
7653;SDS011;3869;48.406;10.774;2022-09-01T01:04:52;7.00;;;3.93;;
7653;SDS011;3869;48.406;10.774;2022-09-01T01:07:25;7.30;;;4.33;;
7653;SDS011;3869;48.406;10.774;2022-09-01T01:09:54;10.07;;;4.10;;
7653;SDS011;3869;48.406;10.774;2022-09-01T01:12:24;6.37;;;4.67;;
7653;SDS011;3869;48.406;10.774;2022-09-01T01:14:55;5.90;;;3.50;;
7653;SDS011;3869;48.406;10.774;2022-09-01T01:17:23;10.63;;;6.07;;
7653;SDS011;3869;48.406;10.774;2022-09-01T01:19:52;3.10;;;2.53;;
7653;SDS011;3869;48.406;10.774;2022-09-01T01:22:42;5.30;;;3.17;;
7653;SDS011;3869;48.406;10.774;2022-09-01T01:25:40;3.93;;;3.53;;
7653;SDS011;3869;48.406;10.774;2022-09-01T01:28:13;7.90;;;4.27;;
7653;SDS011;3869;48.406;10.774;2022-09-01T01:30:45;8.97;;;4.67;;
7653;SDS011;3869;48.406;10.774;2022-09-01T01:33:17;9.70;;;3.97;;
7653;SDS011;3869;48.406;10.774;2022-09-01T01:35:48;7.27;;;4.73;;
7653;SDS011;3869;48.406;10.774;2022-09-01T01:38:16;7.53;;;4.40;;
7653;SDS011;3869;48.406;10.774;2022-09-01T01:40:49;5.63;;;3.53;;
7653;SDS011;3869;48.406;10.774;2022-09-01T01:43:21;8.93;;;5.50;;
7653;SDS011;3869;48.406;10.774;2022-09-01T01:45:50;9.47;;;4.97;;
7653;SDS011;3869;48.406;10.774;2022-09-01T01:48:21;12.23;;;4.17;;
7653;SDS011;3869;48.406;10.774;2022-09-01T01:50:50;5.33;;;3.83;;
7653;SDS011;3869;48.406;10.774;2022-09-01T01:53:20;7.97;;;3.87;;
7653;SDS011;3869;48.406;10.774;2022-09-01T01:55:50;10.10;;;4.80;;
7653;SDS011;3869;48.406;10.774;2022-09-01T01:58:18;4.80;;;3.63;;
7653;SDS011;3869;48.406;10.774;2022-09-01T02:00:48;7.17;;;3.73;;
7653;SDS011;3869;48.406;10.774;2022-09-01T02:03:17;9.50;;;4.17;;
7653;SDS011;3869;48.406;10.774;2022-09-01T02:05:49;11.80;;;5.53;;
7653;SDS011;3869;48.406;10.774;2022-09-01T02:08:19;6.83;;;4.40;;
7653;SDS011;3869;48.406;10.774;2022-09-01T02:10:53;6.97;;;4.53;;
7653;SDS011;3869;48.406;10.774;2022-09-01T02:13:23;7.10;;;4.50;;
7653;SDS011;3869;48.406;10.774;2022-09-01T02:15:54;12.27;;;4.57;;
7653;SDS011;3869;48.406;10.774;2022-09-01T02:18:23;8.10;;;4.20;;
7653;SDS011;3869;48.406;10.774;2022-09-01T02:20:53;8.00;;;5.10;;
7653;SDS011;3869;48.406;10.774;2022-09-01T02:23:24;8.30;;;4.27;;
7653;SDS011;3869;48.406;10.774;2022-09-01T02:25:54;8.67;;;4.37;;
7653;SDS011;3869;48.406;10.774;2022-09-01T02:28:42;6.30;;;4.00;;
7653;SDS011;3869;48.406;10.774;2022-09-01T02:31:20;5.03;;;3.03;;
7653;SDS011;3869;48.406;10.774;2022-09-01T02:33:49;7.17;;;4.40;;
7653;SDS011;3869;48.406;10.774;2022-09-01T02:36:17;9.03;;;3.77;;
7653;SDS011;3869;48.406;10.774;2022-09-01T02:38:46;9.03;;;5.00;;
7653;SDS011;3869;48.406;10.774;2022-09-01T02:41:21;10.00;;;4.47;;
7653;SDS011;3869;48.406;10.774;2022-09-01T02:43:52;9.47;;;4.33;;
7653;SDS011;3869;48.406;10.774;2022-09-01T02:46:20;9.47;;;4.47;;
7653;SDS011;3869;48.406;10.774;2022-09-01T02:48:49;7.30;;;4.50;;
7653;SDS011;3869;48.406;10.774;2022-09-01T02:51:19;5.80;;;3.17;;
7653;SDS011;3869;48.406;10.774;2022-09-01T02:53:50;8.60;;;4.80;;
7653;SDS011;3869;48.406;10.774;2022-09-01T02:56:19;7.30;;;4.60;;
7653;SDS011;3869;48.406;10.774;2022-09-01T02:58:51;9.50;;;4.90;;
7653;SDS011;3869;48.406;10.774;2022-09-01T03:01:20;6.27;;;3.57;;
7653;SDS011;3869;48.406;10.774;2022-09-01T03:03:51;6.27;;;4.10;;
7653;SDS011;3869;48.406;10.774;2022-09-01T03:06:20;6.40;;;4.03;;
7653;SDS011;3869;48.406;10.774;2022-09-01T03:08:50;4.50;;;3.40;;
7653;SDS011;3869;48.406;10.774;2022-09-01T03:11:19;6.63;;;3.53;;
7653;SDS011;3869;48.406;10.774;2022-09-01T03:13:50;4.73;;;3.37;;
7653;SDS011;3869;48.406;10.774;2022-09-01T03:16:19;7.00;;;4.43;;
7653;SDS011;3869;48.406;10.774;2022-09-01T03:18:48;7.57;;;5.20;;
7653;SDS011;3869;48.406;10.774;2022-09-01T03:21:17;4.70;;;3.70;;
7653;SDS011;3869;48.406;10.774;2022-09-01T03:23:46;6.00;;;3.67;;
7653;SDS011;3869;48.406;10.774;2022-09-01T03:26:15;6.67;;;3.90;;
7653;SDS011;3869;48.406;10.774;2022-09-01T03:28:44;9.77;;;5.20;;
7653;SDS011;3869;48.406;10.774;2022-09-01T03:31:14;7.93;;;3.30;;
7653;SDS011;3869;48.406;10.774;2022-09-01T03:33:43;8.60;;;4.40;;
7653;SDS011;3869;48.406;10.774;2022-09-01T03:36:12;7.83;;;4.73;;
7653;SDS011;3869;48.406;10.774;2022-09-01T03:38:44;5.40;;;3.60;;
7653;SDS011;3869;48.406;10.774;2022-09-01T03:41:14;6.20;;;4.50;;
7653;SDS011;3869;48.406;10.774;2022-09-01T03:43:43;11.00;;;3.77;;
7653;SDS011;3869;48.406;10.774;2022-09-01T03:46:15;7.47;;;3.70;;
7653;SDS011;3869;48.406;10.774;2022-09-01T03:48:47;14.97;;;4.43;;
7653;SDS011;3869;48.406;10.774;2022-09-01T03:51:17;5.20;;;3.80;;
7653;SDS011;3869;48.406;10.774;2022-09-01T03:53:47;3.97;;;3.40;;
7653;SDS011;3869;48.406;10.774;2022-09-01T03:56:15;11.30;;;4.70;;
7653;SDS011;3869;48.406;10.774;2022-09-01T03:58:43;9.73;;;3.97;;
7653;SDS011;3869;48.406;10.774;2022-09-01T04:01:12;8.27;;;4.50;;
7653;SDS011;3869;48.406;10.774;2022-09-01T04:03:42;5.60;;;3.73;;
7653;SDS011;3869;48.406;10.774;2022-09-01T04:06:12;5.67;;;4.47;;
7653;SDS011;3869;48.406;10.774;2022-09-01T04:08:43;5.80;;;3.90;;
7653;SDS011;3869;48.406;10.774;2022-09-01T04:11:13;5.13;;;3.10;;
7653;SDS011;3869;48.406;10.774;2022-09-01T04:13:44;7.40;;;4.70;;
7653;SDS011;3869;48.406;10.774;2022-09-01T04:16:17;6.10;;;3.00;;
7653;SDS011;3869;48.406;10.774;2022-09-01T04:19:04;7.43;;;4.27;;
7653;SDS011;3869;48.406;10.774;2022-09-01T04:21:41;8.67;;;3.80;;
7653;SDS011;3869;48.406;10.774;2022-09-01T04:24:10;5.73;;;4.13;;
7653;SDS011;3869;48.406;10.774;2022-09-01T04:26:40;8.53;;;4.13;;
7653;SDS011;3869;48.406;10.774;2022-09-01T04:29:11;5.97;;;2.73;;
7653;SDS011;3869;48.406;10.774;2022-09-01T04:31:40;16.57;;;3.27;;
7653;SDS011;3869;48.406;10.774;2022-09-01T04:34:08;7.00;;;4.63;;
7653;SDS011;3869;48.406;10.774;2022-09-01T04:36:39;6.37;;;4.10;;
7653;SDS011;3869;48.406;10.774;2022-09-01T04:39:09;8.03;;;4.50;;
7653;SDS011;3869;48.406;10.774;2022-09-01T04:41:39;7.80;;;5.10;;
7653;SDS011;3869;48.406;10.774;2022-09-01T04:44:12;8.77;;;3.83;;
7653;SDS011;3869;48.406;10.774;2022-09-01T04:46:42;12.33;;;5.20;;
7653;SDS011;3869;48.406;10.774;2022-09-01T04:49:13;4.03;;;3.00;;
7653;SDS011;3869;48.406;10.774;2022-09-01T04:51:45;11.97;;;4.00;;
7653;SDS011;3869;48.406;10.774;2022-09-01T04:54:19;12.40;;;4.40;;
7653;SDS011;3869;48.406;10.774;2022-09-01T04:56:48;11.83;;;4.47;;
7653;SDS011;3869;48.406;10.774;2022-09-01T04:59:18;4.87;;;3.70;;
7653;SDS011;3869;48.406;10.774;2022-09-01T05:01:49;6.20;;;3.90;;
7653;SDS011;3869;48.406;10.774;2022-09-01T05:04:20;5.70;;;3.83;;
7653;SDS011;3869;48.406;10.774;2022-09-01T05:06:50;7.80;;;4.20;;
7653;SDS011;3869;48.406;10.774;2022-09-01T05:09:23;11.47;;;4.67;;
7653;SDS011;3869;48.406;10.774;2022-09-01T05:11:51;9.57;;;4.40;;
7653;SDS011;3869;48.406;10.774;2022-09-01T05:14:19;6.00;;;4.50;;
7653;SDS011;3869;48.406;10.774;2022-09-01T05:16:49;4.87;;;3.47;;
7653;SDS011;3869;48.406;10.774;2022-09-01T05:19:22;5.93;;;3.33;;
7653;SDS011;3869;48.406;10.774;2022-09-01T05:21:54;6.67;;;3.97;;
7653;SDS011;3869;48.406;10.774;2022-09-01T05:24:23;5.13;;;3.37;;
7653;SDS011;3869;48.406;10.774;2022-09-01T05:27:06;8.93;;;4.47;;
7653;SDS011;3869;48.406;10.774;2022-09-01T05:29:36;5.80;;;3.77;;
7653;SDS011;3869;48.406;10.774;2022-09-01T05:32:06;8.07;;;3.77;;
7653;SDS011;3869;48.406;10.774;2022-09-01T05:34:35;9.23;;;4.20;;
7653;SDS011;3869;48.406;10.774;2022-09-01T05:37:05;7.07;;;4.07;;
7653;SDS011;3869;48.406;10.774;2022-09-01T05:39:35;7.70;;;4.40;;
7653;SDS011;3869;48.406;10.774;2022-09-01T05:42:03;9.30;;;4.03;;
7653;SDS011;3869;48.406;10.774;2022-09-01T05:44:33;7.80;;;4.53;;
7653;SDS011;3869;48.406;10.774;2022-09-01T05:47:01;8.97;;;4.83;;
7653;SDS011;3869;48.406;10.774;2022-09-01T05:49:32;12.20;;;5.00;;
7653;SDS011;3869;48.406;10.774;2022-09-01T05:52:01;6.60;;;4.17;;
7653;SDS011;3869;48.406;10.774;2022-09-01T05:54:29;6.20;;;3.20;;
7653;SDS011;3869;48.406;10.774;2022-09-01T05:56:57;8.73;;;4.20;;
7653;SDS011;3869;48.406;10.774;2022-09-01T05:59:46;5.63;;;3.40;;
7653;SDS011;3869;48.406;10.774;2022-09-01T06:02:19;6.50;;;3.60;;
7653;SDS011;3869;48.406;10.774;2022-09-01T06:04:49;8.23;;;4.67;;
7653;SDS011;3869;48.406;10.774;2022-09-01T06:07:20;12.90;;;4.60;;
7653;SDS011;3869;48.406;10.774;2022-09-01T06:09:50;8.87;;;3.73;;
7653;SDS011;3869;48.406;10.774;2022-09-01T06:12:19;11.47;;;4.90;;
7653;SDS011;3869;48.406;10.774;2022-09-01T06:14:49;5.10;;;3.77;;
7653;SDS011;3869;48.406;10.774;2022-09-01T06:17:19;7.77;;;4.70;;
7653;SDS011;3869;48.406;10.774;2022-09-01T06:19:52;6.20;;;2.87;;
7653;SDS011;3869;48.406;10.774;2022-09-01T06:22:22;6.60;;;3.00;;
7653;SDS011;3869;48.406;10.774;2022-09-01T06:24:51;9.37;;;4.60;;
7653;SDS011;3869;48.406;10.774;2022-09-01T06:27:26;5.83;;;3.87;;
7653;SDS011;3869;48.406;10.774;2022-09-01T06:32:22;5.50;;;3.50;;
7653;SDS011;3869;48.406;10.774;2022-09-01T06:34:52;4.97;;;3.10;;
7653;SDS011;3869;48.406;10.774;2022-09-01T06:37:23;4.93;;;3.20;;
7653;SDS011;3869;48.406;10.774;2022-09-01T06:39:52;12.10;;;3.93;;
7653;SDS011;3869;48.406;10.774;2022-09-01T06:42:20;4.50;;;3.30;;
7653;SDS011;3869;48.406;10.774;2022-09-01T06:44:48;3.67;;;2.57;;
7653;SDS011;3869;48.406;10.774;2022-09-01T06:47:17;7.13;;;2.40;;
7653;SDS011;3869;48.406;10.774;2022-09-01T06:49:45;8.83;;;3.73;;
7653;SDS011;3869;48.406;10.774;2022-09-01T06:52:14;14.10;;;4.23;;
7653;SDS011;3869;48.406;10.774;2022-09-01T06:54:43;14.87;;;5.40;;
7653;SDS011;3869;48.406;10.774;2022-09-01T06:57:11;10.03;;;3.97;;
7653;SDS011;3869;48.406;10.774;2022-09-01T06:59:59;6.70;;;3.90;;
7653;SDS011;3869;48.406;10.774;2022-09-01T07:02:29;6.10;;;3.90;;
7653;SDS011;3869;48.406;10.774;2022-09-01T07:04:59;3.57;;;3.03;;
7653;SDS011;3869;48.406;10.774;2022-09-01T07:07:29;3.37;;;2.93;;
7653;SDS011;3869;48.406;10.774;2022-09-01T07:10:19;3.47;;;2.37;;
7653;SDS011;3869;48.406;10.774;2022-09-01T07:12:49;8.90;;;3.07;;
7653;SDS011;3869;48.406;10.774;2022-09-01T07:15:36;4.67;;;3.27;;
7653;SDS011;3869;48.406;10.774;2022-09-01T07:18:25;3.40;;;2.30;;
7653;SDS011;3869;48.406;10.774;2022-09-01T07:20:56;2.90;;;2.30;;
7653;SDS011;3869;48.406;10.774;2022-09-01T07:23:46;13.23;;;3.33;;
7653;SDS011;3869;48.406;10.774;2022-09-01T07:26:34;3.00;;;2.50;;
7653;SDS011;3869;48.406;10.774;2022-09-01T07:29:12;3.93;;;3.30;;
7653;SDS011;3869;48.406;10.774;2022-09-01T07:31:40;5.17;;;3.57;;
7653;SDS011;3869;48.406;10.774;2022-09-01T07:34:29;5.13;;;2.77;;
7653;SDS011;3869;48.406;10.774;2022-09-01T07:37:06;3.37;;;3.07;;
7653;SDS011;3869;48.406;10.774;2022-09-01T07:39:56;2.97;;;2.07;;
7653;SDS011;3869;48.406;10.774;2022-09-01T07:42:44;4.53;;;2.67;;
7653;SDS011;3869;48.406;10.774;2022-09-01T07:45:34;2.67;;;2.47;;
7653;SDS011;3869;48.406;10.774;2022-09-01T07:48:12;4.30;;;3.60;;
7653;SDS011;3869;48.406;10.774;2022-09-01T07:51:05;6.00;;;3.17;;
7653;SDS011;3869;48.406;10.774;2022-09-01T07:53:53;3.50;;;2.33;;
7653;SDS011;3869;48.406;10.774;2022-09-01T07:56:23;6.50;;;2.00;;
7653;SDS011;3869;48.406;10.774;2022-09-01T07:58:52;4.10;;;2.60;;
7653;SDS011;3869;48.406;10.774;2022-09-01T08:01:21;5.37;;;2.70;;
7653;SDS011;3869;48.406;10.774;2022-09-01T08:03:51;3.97;;;3.20;;
7653;SDS011;3869;48.406;10.774;2022-09-01T08:06:22;2.13;;;1.90;;
7653;SDS011;3869;48.406;10.774;2022-09-01T08:08:53;6.73;;;2.90;;
7653;SDS011;3869;48.406;10.774;2022-09-01T08:11:25;2.53;;;2.03;;
7653;SDS011;3869;48.406;10.774;2022-09-01T08:14:15;4.20;;;2.20;;
7653;SDS011;3869;48.406;10.774;2022-09-01T08:16:43;6.00;;;2.77;;
7653;SDS011;3869;48.406;10.774;2022-09-01T08:19:19;2.57;;;2.37;;
7653;SDS011;3869;48.406;10.774;2022-09-01T08:21:47;4.17;;;3.17;;
7653;SDS011;3869;48.406;10.774;2022-09-01T08:24:15;6.87;;;3.13;;
7653;SDS011;3869;48.406;10.774;2022-09-01T08:26:45;2.93;;;1.87;;
7653;SDS011;3869;48.406;10.774;2022-09-01T08:29:13;2.57;;;2.27;;
7653;SDS011;3869;48.406;10.774;2022-09-01T08:31:42;2.77;;;2.00;;
7653;SDS011;3869;48.406;10.774;2022-09-01T08:34:12;2.20;;;2.00;;
7653;SDS011;3869;48.406;10.774;2022-09-01T08:36:42;2.67;;;2.07;;
7653;SDS011;3869;48.406;10.774;2022-09-01T08:39:10;3.33;;;2.50;;
7653;SDS011;3869;48.406;10.774;2022-09-01T08:41:40;2.40;;;1.97;;
7653;SDS011;3869;48.406;10.774;2022-09-01T08:44:18;3.80;;;2.87;;
7653;SDS011;3869;48.406;10.774;2022-09-01T08:46:57;3.87;;;2.57;;
7653;SDS011;3869;48.406;10.774;2022-09-01T08:49:28;3.60;;;2.60;;
7653;SDS011;3869;48.406;10.774;2022-09-01T08:52:10;2.40;;;2.23;;
7653;SDS011;3869;48.406;10.774;2022-09-01T08:54:47;1.80;;;1.70;;
7653;SDS011;3869;48.406;10.774;2022-09-01T08:57:17;2.00;;;1.80;;
7653;SDS011;3869;48.406;10.774;2022-09-01T08:59:49;3.00;;;2.00;;
7653;SDS011;3869;48.406;10.774;2022-09-01T09:02:22;2.50;;;2.20;;
7653;SDS011;3869;48.406;10.774;2022-09-01T09:05:02;4.50;;;2.97;;
7653;SDS011;3869;48.406;10.774;2022-09-01T09:07:56;3.90;;;2.93;;
7653;SDS011;3869;48.406;10.774;2022-09-01T09:10:40;2.53;;;2.10;;
7653;SDS011;3869;48.406;10.774;2022-09-01T09:13:16;4.10;;;2.37;;
7653;SDS011;3869;48.406;10.774;2022-09-01T09:15:57;2.90;;;2.60;;
7653;SDS011;3869;48.406;10.774;2022-09-01T09:18:36;2.63;;;2.20;;
7653;SDS011;3869;48.406;10.774;2022-09-01T09:21:25;2.50;;;2.30;;
7653;SDS011;3869;48.406;10.774;2022-09-01T09:23:57;4.37;;;2.33;;
7653;SDS011;3869;48.406;10.774;2022-09-01T09:26:33;3.33;;;2.57;;
7653;SDS011;3869;48.406;10.774;2022-09-01T09:29:08;3.27;;;2.60;;
7653;SDS011;3869;48.406;10.774;2022-09-01T09:31:38;5.47;;;2.43;;
7653;SDS011;3869;48.406;10.774;2022-09-01T09:34:15;1.80;;;1.70;;
7653;SDS011;3869;48.406;10.774;2022-09-01T09:36:45;4.17;;;2.97;;
7653;SDS011;3869;48.406;10.774;2022-09-01T09:39:20;3.97;;;2.63;;
7653;SDS011;3869;48.406;10.774;2022-09-01T09:42:00;4.20;;;2.87;;
7653;SDS011;3869;48.406;10.774;2022-09-01T09:44:38;4.80;;;2.20;;
7653;SDS011;3869;48.406;10.774;2022-09-01T09:47:10;15.87;;;3.00;;
7653;SDS011;3869;48.406;10.774;2022-09-01T09:50:11;3.90;;;2.83;;
7653;SDS011;3869;48.406;10.774;2022-09-01T09:52:51;2.90;;;2.30;;
7653;SDS011;3869;48.406;10.774;2022-09-01T09:55:35;5.73;;;2.87;;
7653;SDS011;3869;48.406;10.774;2022-09-01T09:58:21;2.40;;;1.97;;
7653;SDS011;3869;48.406;10.774;2022-09-01T10:01:02;4.17;;;2.67;;
7653;SDS011;3869;48.406;10.774;2022-09-01T10:03:36;3.30;;;2.30;;
7653;SDS011;3869;48.406;10.774;2022-09-01T10:06:11;4.07;;;2.13;;
7653;SDS011;3869;48.406;10.774;2022-09-01T10:08:43;2.50;;;2.30;;
7653;SDS011;3869;48.406;10.774;2022-09-01T10:11:24;2.53;;;2.30;;
7653;SDS011;3869;48.406;10.774;2022-09-01T10:14:01;3.33;;;2.50;;
7653;SDS011;3869;48.406;10.774;2022-09-01T10:16:32;2.27;;;1.80;;
7653;SDS011;3869;48.406;10.774;2022-09-01T10:19:05;5.77;;;2.20;;
7653;SDS011;3869;48.406;10.774;2022-09-01T10:21:38;3.20;;;2.37;;
7653;SDS011;3869;48.406;10.774;2022-09-01T10:24:12;3.60;;;2.23;;
7653;SDS011;3869;48.406;10.774;2022-09-01T10:26:48;2.27;;;1.80;;
7653;SDS011;3869;48.406;10.774;2022-09-01T10:29:19;3.20;;;2.40;;
7653;SDS011;3869;48.406;10.774;2022-09-01T10:31:52;2.57;;;2.07;;
7653;SDS011;3869;48.406;10.774;2022-09-01T10:34:43;7.23;;;3.87;;
7653;SDS011;3869;48.406;10.774;2022-09-01T10:37:12;2.13;;;1.93;;
7653;SDS011;3869;48.406;10.774;2022-09-01T10:42:39;2.10;;;1.90;;
7653;SDS011;3869;48.406;10.774;2022-09-01T10:45:18;2.53;;;2.33;;
7653;SDS011;3869;48.406;10.774;2022-09-01T10:57:27;2.47;;;2.27;;
7653;SDS011;3869;48.406;10.774;2022-09-01T11:03:49;2.10;;;1.93;;
7653;SDS011;3869;48.406;10.774;2022-09-01T11:06:33;2.13;;;1.93;;
7653;SDS011;3869;48.406;10.774;2022-09-01T11:09:32;3.23;;;2.67;;
7653;SDS011;3869;48.406;10.774;2022-09-01T11:18:03;2.13;;;1.50;;
7653;SDS011;3869;48.406;10.774;2022-09-01T11:20:37;2.97;;;2.57;;
7653;SDS011;3869;48.406;10.774;2022-09-01T11:23:09;1.97;;;1.80;;
7653;SDS011;3869;48.406;10.774;2022-09-01T11:25:42;2.90;;;2.40;;
7653;SDS011;3869;48.406;10.774;2022-09-01T11:31:21;3.20;;;2.20;;
7653;SDS011;3869;48.406;10.774;2022-09-01T11:36:52;4.77;;;2.20;;
7653;SDS011;3869;48.406;10.774;2022-09-01T11:39:29;2.60;;;2.33;;
7653;SDS011;3869;48.406;10.774;2022-09-01T11:42:01;7.70;;;2.40;;
7653;SDS011;3869;48.406;10.774;2022-09-01T11:44:41;4.00;;;2.60;;
7653;SDS011;3869;48.406;10.774;2022-09-01T11:47:14;2.47;;;2.27;;
7653;SDS011;3869;48.406;10.774;2022-09-01T11:49:47;2.20;;;2.00;;
7653;SDS011;3869;48.406;10.774;2022-09-01T11:52:18;2.63;;;1.87;;
7653;SDS011;3869;48.406;10.774;2022-09-01T11:54:47;2.00;;;1.57;;
7653;SDS011;3869;48.406;10.774;2022-09-01T11:57:25;3.20;;;2.13;;
7653;SDS011;3869;48.406;10.774;2022-09-01T11:59:55;3.97;;;2.10;;
7653;SDS011;3869;48.406;10.774;2022-09-01T12:02:24;2.20;;;2.00;;
7653;SDS011;3869;48.406;10.774;2022-09-01T12:05:03;4.10;;;2.80;;
7653;SDS011;3869;48.406;10.774;2022-09-01T12:07:51;2.43;;;2.00;;
7653;SDS011;3869;48.406;10.774;2022-09-01T12:10:21;5.33;;;1.93;;
7653;SDS011;3869;48.406;10.774;2022-09-01T12:12:59;1.53;;;1.43;;
7653;SDS011;3869;48.406;10.774;2022-09-01T12:15:29;1.40;;;1.30;;
7653;SDS011;3869;48.406;10.774;2022-09-01T12:18:07;2.53;;;2.30;;
7653;SDS011;3869;48.406;10.774;2022-09-01T12:20:38;2.20;;;1.60;;
7653;SDS011;3869;48.406;10.774;2022-09-01T12:23:17;2.10;;;1.70;;
7653;SDS011;3869;48.406;10.774;2022-09-01T12:25:50;1.50;;;1.40;;
7653;SDS011;3869;48.406;10.774;2022-09-01T12:28:22;1.70;;;1.60;;
7653;SDS011;3869;48.406;10.774;2022-09-01T12:30:56;2.00;;;1.80;;
7653;SDS011;3869;48.406;10.774;2022-09-01T12:33:25;1.60;;;1.50;;
7653;SDS011;3869;48.406;10.774;2022-09-01T12:38:39;2.23;;;1.40;;
7653;SDS011;3869;48.406;10.774;2022-09-01T12:41:21;3.30;;;1.23;;
7653;SDS011;3869;48.406;10.774;2022-09-01T12:43:51;2.30;;;1.77;;
7653;SDS011;3869;48.406;10.774;2022-09-01T12:46:40;2.70;;;2.30;;
7653;SDS011;3869;48.406;10.774;2022-09-01T12:49:15;1.80;;;1.40;;
7653;SDS011;3869;48.406;10.774;2022-09-01T12:51:44;2.13;;;1.57;;
7653;SDS011;3869;48.406;10.774;2022-09-01T12:54:14;1.40;;;1.30;;
7653;SDS011;3869;48.406;10.774;2022-09-01T12:56:46;1.40;;;1.30;;
7653;SDS011;3869;48.406;10.774;2022-09-01T12:59:21;2.00;;;1.50;;
7653;SDS011;3869;48.406;10.774;2022-09-01T13:04:54;1.53;;;1.43;;
7653;SDS011;3869;48.406;10.774;2022-09-01T13:07:56;2.03;;;1.50;;
7653;SDS011;3869;48.406;10.774;2022-09-01T13:10:27;1.50;;;1.40;;
7653;SDS011;3869;48.406;10.774;2022-09-01T13:12:59;2.10;;;1.73;;
7653;SDS011;3869;48.406;10.774;2022-09-01T13:15:29;2.43;;;1.97;;
7653;SDS011;3869;48.406;10.774;2022-09-01T13:17:57;2.03;;;1.40;;
7653;SDS011;3869;48.406;10.774;2022-09-01T13:20:25;2.03;;;1.70;;
7653;SDS011;3869;48.406;10.774;2022-09-01T13:22:53;3.90;;;1.83;;
7653;SDS011;3869;48.406;10.774;2022-09-01T13:25:22;1.67;;;1.57;;
7653;SDS011;3869;48.406;10.774;2022-09-01T13:27:50;1.90;;;1.70;;
7653;SDS011;3869;48.406;10.774;2022-09-01T13:30:20;1.90;;;1.50;;
7653;SDS011;3869;48.406;10.774;2022-09-01T13:32:51;1.73;;;1.63;;
7653;SDS011;3869;48.406;10.774;2022-09-01T13:35:39;2.23;;;1.90;;
7653;SDS011;3869;48.406;10.774;2022-09-01T13:38:08;4.43;;;1.47;;
7653;SDS011;3869;48.406;10.774;2022-09-01T13:40:36;1.23;;;1.13;;
7653;SDS011;3869;48.406;10.774;2022-09-01T13:43:04;1.53;;;1.43;;
7653;SDS011;3869;48.406;10.774;2022-09-01T13:45:32;4.10;;;1.70;;
7653;SDS011;3869;48.406;10.774;2022-09-01T13:48:02;1.37;;;1.27;;
7653;SDS011;3869;48.406;10.774;2022-09-01T13:50:45;1.57;;;1.47;;
7653;SDS011;3869;48.406;10.774;2022-09-01T13:53:35;1.53;;;1.10;;
7653;SDS011;3869;48.406;10.774;2022-09-01T13:56:03;1.63;;;1.53;;
7653;SDS011;3869;48.406;10.774;2022-09-01T13:58:31;1.63;;;1.37;;
7653;SDS011;3869;48.406;10.774;2022-09-01T14:00:59;1.50;;;1.40;;
7653;SDS011;3869;48.406;10.774;2022-09-01T14:03:29;2.07;;;1.43;;
7653;SDS011;3869;48.406;10.774;2022-09-01T14:05:57;1.93;;;1.80;;
7653;SDS011;3869;48.406;10.774;2022-09-01T14:08:25;1.97;;;1.20;;
7653;SDS011;3869;48.406;10.774;2022-09-01T14:10:53;2.17;;;1.80;;
7653;SDS011;3869;48.406;10.774;2022-09-01T14:13:22;1.63;;;1.53;;
7653;SDS011;3869;48.406;10.774;2022-09-01T14:15:51;1.93;;;1.47;;
7653;SDS011;3869;48.406;10.774;2022-09-01T14:18:19;2.30;;;1.33;;
7653;SDS011;3869;48.406;10.774;2022-09-01T14:20:50;1.40;;;1.30;;
7653;SDS011;3869;48.406;10.774;2022-09-01T14:23:22;2.43;;;1.60;;
7653;SDS011;3869;48.406;10.774;2022-09-01T14:25:50;1.77;;;1.40;;
7653;SDS011;3869;48.406;10.774;2022-09-01T14:28:18;1.40;;;1.13;;
7653;SDS011;3869;48.406;10.774;2022-09-01T14:30:49;1.30;;;1.20;;
7653;SDS011;3869;48.406;10.774;2022-09-01T14:33:17;1.83;;;1.20;;
7653;SDS011;3869;48.406;10.774;2022-09-01T14:35:50;1.50;;;1.40;;
7653;SDS011;3869;48.406;10.774;2022-09-01T14:38:19;1.77;;;1.47;;
7653;SDS011;3869;48.406;10.774;2022-09-01T14:40:47;0.90;;;0.90;;
7653;SDS011;3869;48.406;10.774;2022-09-01T14:43:17;2.30;;;1.43;;
7653;SDS011;3869;48.406;10.774;2022-09-01T14:45:46;1.40;;;1.30;;
7653;SDS011;3869;48.406;10.774;2022-09-01T14:48:14;1.50;;;1.40;;
7653;SDS011;3869;48.406;10.774;2022-09-01T14:50:46;1.73;;;1.63;;
7653;SDS011;3869;48.406;10.774;2022-09-01T14:53:16;2.00;;;1.63;;
7653;SDS011;3869;48.406;10.774;2022-09-01T14:55:45;2.40;;;1.50;;
7653;SDS011;3869;48.406;10.774;2022-09-01T14:58:15;1.23;;;1.13;;
7653;SDS011;3869;48.406;10.774;2022-09-01T15:00:43;1.77;;;1.67;;
7653;SDS011;3869;48.406;10.774;2022-09-01T15:03:13;1.50;;;1.30;;
7653;SDS011;3869;48.406;10.774;2022-09-01T15:05:47;1.40;;;1.30;;
7653;SDS011;3869;48.406;10.774;2022-09-01T15:08:17;1.10;;;1.00;;
7653;SDS011;3869;48.406;10.774;2022-09-01T15:10:45;1.20;;;1.10;;
7653;SDS011;3869;48.406;10.774;2022-09-01T15:13:13;1.20;;;1.10;;
7653;SDS011;3869;48.406;10.774;2022-09-01T15:15:42;1.57;;;1.37;;
7653;SDS011;3869;48.406;10.774;2022-09-01T15:18:10;1.27;;;1.17;;
7653;SDS011;3869;48.406;10.774;2022-09-01T15:20:39;1.60;;;1.50;;
7653;SDS011;3869;48.406;10.774;2022-09-01T15:23:14;1.53;;;1.37;;
7653;SDS011;3869;48.406;10.774;2022-09-01T15:25:46;5.13;;;1.53;;
7653;SDS011;3869;48.406;10.774;2022-09-01T15:28:15;1.30;;;1.20;;
7653;SDS011;3869;48.406;10.774;2022-09-01T15:30:43;3.03;;;1.67;;
7653;SDS011;3869;48.406;10.774;2022-09-01T15:33:12;1.70;;;1.47;;
7653;SDS011;3869;48.406;10.774;2022-09-01T15:35:41;1.00;;;1.00;;
7653;SDS011;3869;48.406;10.774;2022-09-01T15:38:10;1.83;;;1.30;;
7653;SDS011;3869;48.406;10.774;2022-09-01T15:40:43;1.20;;;1.10;;
7653;SDS011;3869;48.406;10.774;2022-09-01T15:43:24;2.10;;;1.40;;
7653;SDS011;3869;48.406;10.774;2022-09-01T15:45:54;1.37;;;1.27;;
7653;SDS011;3869;48.406;10.774;2022-09-01T15:48:23;1.13;;;1.03;;
7653;SDS011;3869;48.406;10.774;2022-09-01T15:50:52;1.80;;;1.30;;
7653;SDS011;3869;48.406;10.774;2022-09-01T15:53:20;1.63;;;1.03;;
7653;SDS011;3869;48.406;10.774;2022-09-01T15:55:48;1.17;;;1.17;;
7653;SDS011;3869;48.406;10.774;2022-09-01T15:58:16;1.10;;;1.10;;
7653;SDS011;3869;48.406;10.774;2022-09-01T16:00:46;0.90;;;0.90;;
7653;SDS011;3869;48.406;10.774;2022-09-01T16:03:16;2.30;;;1.17;;
7653;SDS011;3869;48.406;10.774;2022-09-01T16:05:44;1.30;;;1.20;;
7653;SDS011;3869;48.406;10.774;2022-09-01T16:08:12;1.30;;;1.20;;